createdAt,value
2018-12-27T00:01:37.903Z,38.87
2018-12-27T00:04:06.325Z,37.27
2018-12-27T00:06:34.736Z,40.07
2018-12-27T00:09:04.641Z,40.37
2018-12-27T00:11:33.099Z,40.20
2018-12-27T00:14:01.666Z,38.00
2018-12-27T00:16:30.234Z,41.10
2018-12-27T00:19:00.362Z,38.03
2018-12-27T00:21:28.829Z,40.17
2018-12-27T00:23:57.307Z,42.27
2018-12-27T00:26:25.755Z,39.40
2018-12-27T00:28:54.160Z,41.67
2018-12-27T00:31:22.792Z,42.53
2018-12-27T00:33:51.376Z,38.47
2018-12-27T00:36:19.919Z,42.37
2018-12-27T00:38:48.484Z,40.40
2018-12-27T00:41:17.116Z,42.67
2018-12-27T00:43:45.655Z,48.07
2018-12-27T00:46:14.241Z,43.47
2018-12-27T00:48:45.970Z,44.60
2018-12-27T00:51:14.518Z,45.40
2018-12-27T00:53:43.090Z,39.70
2018-12-27T00:56:11.678Z,46.83
2018-12-27T00:58:40.263Z,43.77
2018-12-27T01:01:09.112Z,43.33
2018-12-27T01:03:37.685Z,41.00
2018-12-27T01:06:06.275Z,42.87
2018-12-27T01:08:34.806Z,45.87
2018-12-27T01:11:03.360Z,44.20
2018-12-27T01:13:31.945Z,42.03
2018-12-27T01:16:02.313Z,44.90
2018-12-27T01:18:30.805Z,48.07
2018-12-27T01:20:59.392Z,41.27
2018-12-27T01:23:27.955Z,43.03
2018-12-27T01:25:56.529Z,43.40
2018-12-27T01:28:25.062Z,45.40
2018-12-27T01:30:53.660Z,45.77
2018-12-27T01:33:22.231Z,47.93
2018-12-27T01:35:50.838Z,41.00
2018-12-27T01:38:19.520Z,43.87
2018-12-27T01:40:48.080Z,39.33
2018-12-27T01:43:16.666Z,44.37
2018-12-27T01:45:45.256Z,44.70
2018-12-27T01:48:13.888Z,47.33
2018-12-27T01:50:42.472Z,43.60
2018-12-27T01:53:11.068Z,44.73
2018-12-27T01:55:39.707Z,46.20
2018-12-27T01:58:08.372Z,49.83
2018-12-27T02:00:36.971Z,42.77
2018-12-27T02:03:05.747Z,42.97
2018-12-27T02:05:34.292Z,40.03
2018-12-27T02:08:02.871Z,43.60
2018-12-27T02:10:31.510Z,43.60
2018-12-27T02:13:00.090Z,43.73
2018-12-27T02:15:28.643Z,41.57
2018-12-27T02:17:57.234Z,40.57
2018-12-27T02:20:25.808Z,42.87
2018-12-27T02:22:54.418Z,43.07
2018-12-27T02:25:23.029Z,43.77
2018-12-27T02:27:51.558Z,41.73
2018-12-27T02:30:20.162Z,39.50
2018-12-27T02:32:48.735Z,41.83
2018-12-27T02:35:17.279Z,40.43
2018-12-27T02:37:45.897Z,43.60
2018-12-27T02:40:14.444Z,40.27
2018-12-27T02:42:43.755Z,42.33
2018-12-27T02:45:12.319Z,40.63
2018-12-27T02:47:40.902Z,43.63
2018-12-27T02:50:09.470Z,46.77
2018-12-27T02:52:38.090Z,39.43
2018-12-27T02:55:06.665Z,38.50
2018-12-27T02:57:35.308Z,37.93
2018-12-27T03:00:03.868Z,39.43
2018-12-27T03:02:32.937Z,36.93
2018-12-27T03:05:01.544Z,38.97
2018-12-27T03:07:30.643Z,37.27
2018-12-27T03:09:59.721Z,40.77
2018-12-27T03:12:28.271Z,38.50
2018-12-27T03:14:56.816Z,38.63
2018-12-27T03:17:25.402Z,37.30
2018-12-27T03:19:53.992Z,40.40
2018-12-27T03:22:22.553Z,37.60
2018-12-27T03:24:51.223Z,38.27
2018-12-27T03:27:19.784Z,34.97
2018-12-27T03:29:48.410Z,36.73
2018-12-27T03:32:16.973Z,34.53
2018-12-27T03:34:45.556Z,37.97
2018-12-27T03:37:14.173Z,37.83
2018-12-27T03:39:42.780Z,40.03
2018-12-27T03:42:11.360Z,38.13
2018-12-27T03:44:39.969Z,34.73
2018-12-27T03:47:08.560Z,35.47
2018-12-27T03:49:37.103Z,37.77
2018-12-27T03:52:05.664Z,37.57
2018-12-27T03:54:34.240Z,37.70
2018-12-27T03:57:02.827Z,38.47
2018-12-27T03:59:31.430Z,36.63
2018-12-27T04:02:00.010Z,39.93
2018-12-27T04:04:28.661Z,37.47
2018-12-27T04:06:57.234Z,39.23
2018-12-27T04:09:25.822Z,40.67
2018-12-27T04:11:54.412Z,39.70
2018-12-27T04:14:22.980Z,39.87
2018-12-27T04:16:51.469Z,37.30
2018-12-27T04:19:19.903Z,42.53
2018-12-27T04:21:51.016Z,41.23
2018-12-27T04:24:20.624Z,39.57
2018-12-27T04:26:49.035Z,35.90
2018-12-27T04:29:17.485Z,38.70
2018-12-27T04:31:48.259Z,45.23
2018-12-27T04:34:17.852Z,44.00
2018-12-27T04:36:46.859Z,40.43
2018-12-27T04:39:15.300Z,45.10
2018-12-27T04:41:44.235Z,40.57
2018-12-27T04:44:13.234Z,48.17
2018-12-27T04:46:41.660Z,45.80
2018-12-27T04:49:10.165Z,43.27
2018-12-27T04:51:38.622Z,44.80
2018-12-27T04:54:07.073Z,40.53
2018-12-27T04:56:35.535Z,44.17
2018-12-27T04:59:04.066Z,42.90
2018-12-27T05:01:32.551Z,45.70
2018-12-27T05:04:01.016Z,42.53
2018-12-27T05:06:29.414Z,48.53
2018-12-27T05:08:57.856Z,48.60
2018-12-27T05:11:26.345Z,44.20
2018-12-27T05:13:54.813Z,45.53
2018-12-27T05:16:23.251Z,45.07
2018-12-27T05:18:51.689Z,45.20
2018-12-27T05:21:20.295Z,46.00
2018-12-27T05:23:48.779Z,43.37
2018-12-27T05:26:17.207Z,50.13
2018-12-27T05:28:45.691Z,47.20
2018-12-27T05:31:14.196Z,47.67
2018-12-27T05:33:42.806Z,49.30
2018-12-27T05:36:11.254Z,39.23
2018-12-27T05:38:39.663Z,46.40
2018-12-27T05:41:08.107Z,45.13
2018-12-27T05:43:36.531Z,39.93
2018-12-27T05:46:05.070Z,45.63
2018-12-27T05:48:33.527Z,48.80
2018-12-27T05:51:01.991Z,44.10
2018-12-27T05:53:30.493Z,46.10
2018-12-27T05:55:58.918Z,44.60
2018-12-27T05:58:27.367Z,49.10
2018-12-27T06:00:55.816Z,47.40
2018-12-27T06:03:24.354Z,49.47
2018-12-27T06:05:52.823Z,45.47
2018-12-27T06:08:21.389Z,48.97
2018-12-27T06:10:49.823Z,47.70
2018-12-27T06:13:18.284Z,42.07
2018-12-27T06:15:46.724Z,44.77
2018-12-27T06:18:15.145Z,43.00
2018-12-27T06:20:43.607Z,44.40
2018-12-27T06:23:12.025Z,42.63
2018-12-27T06:25:40.599Z,43.80
2018-12-27T06:28:09.025Z,39.60
2018-12-27T06:30:37.453Z,38.13
2018-12-27T06:33:05.940Z,40.47
2018-12-27T06:35:34.732Z,41.10
2018-12-27T06:38:03.321Z,41.50
2018-12-27T06:40:31.782Z,37.47
2018-12-27T06:43:00.209Z,40.67
2018-12-27T06:45:28.715Z,35.97
2018-12-27T06:47:57.753Z,35.07
2018-12-27T06:50:26.693Z,35.30
2018-12-27T06:52:55.158Z,37.83
2018-12-27T06:55:23.598Z,36.20
2018-12-27T06:57:52.064Z,33.67
2018-12-27T07:00:20.589Z,35.10
2018-12-27T07:02:49.026Z,37.17
2018-12-27T07:05:17.463Z,31.37
2018-12-27T07:07:45.891Z,36.20
2018-12-27T07:10:14.348Z,33.30
2018-12-27T07:12:42.783Z,32.30
2018-12-27T07:15:11.364Z,28.43
2018-12-27T07:17:40.580Z,30.97
2018-12-27T07:20:11.336Z,30.17
2018-12-27T07:22:39.938Z,28.93
2018-12-27T07:25:08.448Z,29.73
2018-12-27T07:27:36.939Z,27.10
2018-12-27T07:30:07.552Z,28.70
2018-12-27T07:32:35.994Z,26.53
2018-12-27T07:35:04.905Z,25.13
2018-12-27T07:37:33.369Z,25.53
2018-12-27T07:40:01.946Z,28.40
2018-12-27T07:42:30.370Z,27.90
2018-12-27T07:44:58.860Z,26.93
2018-12-27T07:47:27.283Z,24.80
2018-12-27T07:49:55.849Z,22.90
2018-12-27T07:52:24.304Z,27.07
2018-12-27T07:54:56.479Z,25.70
2018-12-27T07:57:24.902Z,23.20
2018-12-27T07:59:53.353Z,23.87
2018-12-27T08:02:21.762Z,20.40
2018-12-27T08:04:50.348Z,29.20
2018-12-27T08:07:18.851Z,23.10
2018-12-27T08:09:47.696Z,28.80
2018-12-27T08:12:17.298Z,22.20
2018-12-27T08:14:45.715Z,22.77
2018-12-27T08:17:14.143Z,22.13
2018-12-27T08:19:45.429Z,24.17
2018-12-27T08:22:13.848Z,24.10
2018-12-27T08:24:42.389Z,23.07
2018-12-27T08:27:10.986Z,23.23
2018-12-27T08:29:39.365Z,21.83
2018-12-27T08:32:07.834Z,20.93
2018-12-27T08:34:40.117Z,22.57
2018-12-27T08:37:08.553Z,22.03
2018-12-27T08:39:36.995Z,21.20
2018-12-27T08:42:05.681Z,22.13
2018-12-27T08:44:34.151Z,21.07
2018-12-27T08:47:02.657Z,20.70
2018-12-27T08:49:31.098Z,18.70
2018-12-27T08:51:59.937Z,20.43
2018-12-27T08:54:28.331Z,20.07
2018-12-27T08:56:56.776Z,16.90
2018-12-27T08:59:25.240Z,20.27
2018-12-27T09:01:53.651Z,21.93
2018-12-27T09:04:22.116Z,18.17
2018-12-27T09:06:50.541Z,20.17
2018-12-27T09:09:19.079Z,19.90
2018-12-27T09:11:47.537Z,18.90
2018-12-27T09:14:15.962Z,21.80
2018-12-27T09:16:44.394Z,16.93
2018-12-27T09:19:13.103Z,18.37
2018-12-27T09:21:41.664Z,21.03
2018-12-27T09:24:10.193Z,17.90
2018-12-27T09:26:38.714Z,18.93
2018-12-27T09:29:07.137Z,19.23
2018-12-27T09:31:35.694Z,19.03
2018-12-27T09:34:04.274Z,18.10
2018-12-27T09:36:32.692Z,17.23
2018-12-27T09:39:01.166Z,16.90
2018-12-27T09:41:29.952Z,19.67
2018-12-27T09:43:58.869Z,20.80
2018-12-27T09:46:27.293Z,21.47
2018-12-27T09:48:55.860Z,18.57
2018-12-27T09:51:24.303Z,18.87
2018-12-27T09:53:52.732Z,18.43
2018-12-27T09:56:21.590Z,16.80
2018-12-27T09:58:50.027Z,19.93
2018-12-27T10:01:18.669Z,19.87
2018-12-27T10:03:47.135Z,19.60
2018-12-27T10:06:15.585Z,21.33
2018-12-27T10:08:44.115Z,21.53
2018-12-27T10:11:12.576Z,17.53
2018-12-27T10:13:41.036Z,17.43
2018-12-27T10:16:09.544Z,19.67
2018-12-27T10:18:37.981Z,15.50
2018-12-27T10:21:06.506Z,18.27
2018-12-27T10:23:35.004Z,19.47
2018-12-27T10:26:03.503Z,16.83
2018-12-27T10:28:31.956Z,17.90
2018-12-27T10:31:00.393Z,18.20
2018-12-27T10:33:28.827Z,16.53
2018-12-27T10:35:57.256Z,16.97
2018-12-27T10:38:25.725Z,16.60
2018-12-27T10:40:54.139Z,16.33
2018-12-27T10:43:22.600Z,17.53
2018-12-27T10:45:51.093Z,16.10
2018-12-27T10:48:19.504Z,15.80
2018-12-27T10:50:47.960Z,15.10
2018-12-27T10:53:16.486Z,16.87
2018-12-27T10:55:44.921Z,13.33
2018-12-27T10:58:13.354Z,14.33
2018-12-27T11:00:41.788Z,17.03
2018-12-27T11:03:10.198Z,12.73
2018-12-27T11:05:38.644Z,13.93
2018-12-27T11:08:07.150Z,14.00
2018-12-27T11:10:35.562Z,15.53
2018-12-27T11:13:04.028Z,14.13
2018-12-27T11:15:32.433Z,13.20
2018-12-27T11:18:00.841Z,15.47
2018-12-27T11:20:29.299Z,14.43
2018-12-27T11:22:57.721Z,13.43
2018-12-27T11:25:26.139Z,13.70
2018-12-27T11:27:54.660Z,15.40
2018-12-27T11:30:23.163Z,12.13
2018-12-27T11:32:51.592Z,13.47
2018-12-27T11:35:20.027Z,13.03
2018-12-27T11:37:48.462Z,12.73
2018-12-27T11:40:16.909Z,14.43
2018-12-27T11:42:45.323Z,14.23
2018-12-27T11:45:13.847Z,17.27
2018-12-27T11:47:42.353Z,14.30
2018-12-27T11:50:12.392Z,15.80
2018-12-27T11:52:42.879Z,13.40
2018-12-27T11:55:11.375Z,12.93
2018-12-27T11:57:39.790Z,14.63
2018-12-27T12:00:10.749Z,12.67
2018-12-27T12:02:39.162Z,12.53
2018-12-27T12:05:08.158Z,12.93
2018-12-27T12:07:36.643Z,15.23
2018-12-27T12:10:07.353Z,14.87
2018-12-27T12:12:39.327Z,14.43
2018-12-27T12:15:08.756Z,11.60
2018-12-27T12:17:37.235Z,14.37
2018-12-27T12:20:07.608Z,16.50
2018-12-27T12:22:36.035Z,13.10
2018-12-27T12:25:05.031Z,11.77
2018-12-27T12:27:33.510Z,14.37
2018-12-27T12:30:02.549Z,14.07
2018-12-27T12:32:31.741Z,13.03
2018-12-27T12:35:00.186Z,14.23
2018-12-27T12:37:28.966Z,12.43
2018-12-27T12:39:57.432Z,13.33
2018-12-27T12:42:32.822Z,14.73
2018-12-27T12:44:56.059Z,14.83
2018-12-27T12:47:24.493Z,12.27
2018-12-27T12:49:53.002Z,13.33
2018-12-27T12:52:21.422Z,12.97
2018-12-27T12:54:49.933Z,14.93
2018-12-27T12:57:18.357Z,11.67
2018-12-27T12:59:46.941Z,13.67
2018-12-27T13:02:15.408Z,13.23
2018-12-27T13:04:43.828Z,15.53
2018-12-27T13:07:12.250Z,12.67
2018-12-27T13:09:40.682Z,12.20
2018-12-27T13:12:09.624Z,12.43
2018-12-27T13:14:38.205Z,12.20
2018-12-27T13:17:06.629Z,13.27
2018-12-27T13:19:35.214Z,13.30
2018-12-27T13:22:04.312Z,9.57
2018-12-27T13:24:32.976Z,10.53
2018-12-27T13:27:01.396Z,11.00
2018-12-27T13:29:29.850Z,7.13
2018-12-27T13:31:58.290Z,11.03
2018-12-27T13:34:30.295Z,9.93
2018-12-27T13:36:59.331Z,11.83
2018-12-27T13:39:28.020Z,8.97
2018-12-27T13:41:57.997Z,8.03
2018-12-27T13:44:26.415Z,7.87
2018-12-27T13:46:54.858Z,8.20
2018-12-27T13:49:23.324Z,7.37
2018-12-27T13:51:53.059Z,7.27
2018-12-27T13:54:22.399Z,7.43
2018-12-27T13:56:50.839Z,7.77
2018-12-27T13:59:19.355Z,8.23
2018-12-27T14:01:55.581Z,10.57
2018-12-27T14:04:23.998Z,7.43
2018-12-27T14:06:52.426Z,7.73
2018-12-27T14:09:20.861Z,7.70
2018-12-27T14:11:49.306Z,6.73
2018-12-27T14:14:17.743Z,9.23
2018-12-27T14:16:46.152Z,8.93
2018-12-27T14:19:14.592Z,7.93
2018-12-27T14:21:43.005Z,8.63
2018-12-27T14:24:11.421Z,10.83
2018-12-27T14:26:39.869Z,7.20
2018-12-27T14:29:11.075Z,7.17
2018-12-27T14:31:39.497Z,9.73
2018-12-27T14:34:07.921Z,11.37
2018-12-27T14:36:39.666Z,11.97
2018-12-27T14:39:07.360Z,10.10
2018-12-27T14:41:35.810Z,12.00
2018-12-27T14:44:04.242Z,13.30
2018-12-27T14:46:32.771Z,17.90
2018-12-27T14:49:01.175Z,12.67
2018-12-27T14:51:29.601Z,16.13
2018-12-27T14:53:58.069Z,15.40
2018-12-27T14:56:26.546Z,10.97
2018-12-27T14:58:54.966Z,15.80
2018-12-27T15:01:23.432Z,11.50
2018-12-27T15:03:51.840Z,12.47
2018-12-27T15:06:20.332Z,11.70
2018-12-27T15:08:48.840Z,12.20
2018-12-27T15:11:17.263Z,12.13
2018-12-27T15:13:45.715Z,11.50
2018-12-27T15:16:14.130Z,12.53
2018-12-27T15:18:42.601Z,13.53
2018-12-27T15:21:11.070Z,11.43
2018-12-27T15:23:39.485Z,12.53
2018-12-27T15:26:07.911Z,12.50
2018-12-27T15:28:36.404Z,13.37
2018-12-27T15:31:04.816Z,13.80
2018-12-27T15:33:33.591Z,12.37
2018-12-27T15:36:02.051Z,12.13
2018-12-27T15:38:30.474Z,11.87
2018-12-27T15:40:58.903Z,13.73
2018-12-27T15:43:27.358Z,14.73
2018-12-27T15:45:55.782Z,13.43
2018-12-27T15:48:24.221Z,13.17
2018-12-27T15:50:52.647Z,12.13
2018-12-27T15:53:21.086Z,10.83
2018-12-27T15:55:49.499Z,12.83
2018-12-27T15:58:17.945Z,15.57
2018-12-27T16:00:46.380Z,14.67
2018-12-27T16:03:14.812Z,14.27
2018-12-27T16:05:43.250Z,13.87
2018-12-27T16:08:11.660Z,11.03
2018-12-27T16:10:40.144Z,12.40
2018-12-27T16:13:08.555Z,11.67
2018-12-27T16:15:36.978Z,15.63
2018-12-27T16:18:05.448Z,12.83
2018-12-27T16:20:33.894Z,14.33
2018-12-27T16:23:02.299Z,11.47
2018-12-27T16:25:31.113Z,11.97
2018-12-27T16:27:59.528Z,12.03
2018-12-27T16:30:28.343Z,10.50
2018-12-27T16:32:56.769Z,10.30
2018-12-27T16:35:25.200Z,11.83
2018-12-27T16:37:54.029Z,13.53
2018-12-27T16:40:22.539Z,8.30
2018-12-27T16:42:51.114Z,9.73
2018-12-27T16:45:19.540Z,9.47
2018-12-27T16:47:47.987Z,11.00
2018-12-27T16:50:16.416Z,8.47
2018-12-27T16:52:44.848Z,9.90
2018-12-27T16:55:13.340Z,9.77
2018-12-27T16:57:41.763Z,9.10
2018-12-27T17:00:10.251Z,12.87
2018-12-27T17:02:38.678Z,11.07
2018-12-27T17:05:07.209Z,9.73
2018-12-27T17:07:35.592Z,8.53
2018-12-27T17:10:04.893Z,9.13
2018-12-27T17:12:33.365Z,10.97
2018-12-27T17:15:01.784Z,10.23
2018-12-27T17:17:30.262Z,10.90
2018-12-27T17:19:58.707Z,10.30
2018-12-27T17:22:27.218Z,10.50
2018-12-27T17:24:55.664Z,9.83
2018-12-27T17:27:25.750Z,9.17
2018-12-27T17:29:54.229Z,11.10
2018-12-27T17:32:22.677Z,9.20
2018-12-27T17:34:51.106Z,8.80
2018-12-27T17:37:23.319Z,8.63
2018-12-27T17:39:49.682Z,9.43
2018-12-27T17:42:18.088Z,9.33
2018-12-27T17:44:46.625Z,10.73
2018-12-27T17:47:15.021Z,9.07
2018-12-27T17:49:43.434Z,10.63
2018-12-27T17:52:11.983Z,8.10
2018-12-27T17:54:40.403Z,8.83
2018-12-27T17:57:08.847Z,9.63
2018-12-27T17:59:37.416Z,9.03
2018-12-27T18:02:05.834Z,7.33
2018-12-27T18:04:34.255Z,10.10
2018-12-27T18:07:02.706Z,7.27
2018-12-27T18:09:31.118Z,9.90
2018-12-27T18:11:59.638Z,6.53
2018-12-27T18:14:28.103Z,8.13
2018-12-27T18:16:56.577Z,7.67
2018-12-27T18:19:26.313Z,10.90
2018-12-27T18:21:56.827Z,9.27
2018-12-27T18:24:25.475Z,8.57
2018-12-27T18:26:53.912Z,8.60
2018-12-27T18:29:22.352Z,11.70
2018-12-27T18:31:50.773Z,9.40
2018-12-27T18:34:19.301Z,8.37
2018-12-27T18:36:47.910Z,6.87
2018-12-27T18:39:16.914Z,6.70
2018-12-27T18:41:45.824Z,6.17
2018-12-27T18:44:14.332Z,8.20
2018-12-27T18:46:43.041Z,7.73
2018-12-27T18:49:13.006Z,9.37
2018-12-27T18:51:41.435Z,7.53
2018-12-27T18:54:09.832Z,9.37
2018-12-27T18:56:39.957Z,6.60
2018-12-27T18:59:08.406Z,7.33
2018-12-27T19:01:36.896Z,6.17
2018-12-27T19:04:07.200Z,7.47
2018-12-27T19:06:35.622Z,6.80
2018-12-27T19:09:09.547Z,6.70
2018-12-27T19:12:14.349Z,8.77
2018-12-27T19:14:43.142Z,6.77
2018-12-27T19:17:17.601Z,7.60
2018-12-27T19:19:46.089Z,5.97
2018-12-27T19:22:15.723Z,7.53
2018-12-27T19:24:44.153Z,6.57
2018-12-27T19:27:12.574Z,8.53
2018-12-27T19:29:41.007Z,11.53
2018-12-27T19:32:09.487Z,6.87
2018-12-27T19:34:37.897Z,7.43
2018-12-27T19:37:06.325Z,9.97
2018-12-27T19:39:35.476Z,7.63
2018-12-27T19:42:03.896Z,7.63
2018-12-27T19:44:32.338Z,8.83
2018-12-27T19:47:00.750Z,7.03
2018-12-27T19:49:29.178Z,7.63
2018-12-27T19:51:57.602Z,7.17
2018-12-27T19:54:31.940Z,9.13
2018-12-27T19:56:56.233Z,6.87
2018-12-27T19:59:24.685Z,7.87
2018-12-27T20:01:53.133Z,9.37
2018-12-27T20:04:21.581Z,7.37
2018-12-27T20:06:50.104Z,7.23
2018-12-27T20:09:18.530Z,6.80
2018-12-27T20:11:46.956Z,8.53
2018-12-27T20:14:15.461Z,7.60
2018-12-27T20:16:43.963Z,8.93
2018-12-27T20:19:12.394Z,8.90
2018-12-27T20:21:40.855Z,8.00
2018-12-27T20:24:09.333Z,7.83
2018-12-27T20:26:37.761Z,6.37
2018-12-27T20:29:06.168Z,9.93
2018-12-27T20:31:34.608Z,10.27
2018-12-27T20:34:03.122Z,10.60
2018-12-27T20:36:33.044Z,8.80
2018-12-27T20:39:01.528Z,12.17
2018-12-27T20:41:29.966Z,10.50
2018-12-27T20:43:58.387Z,7.60
2018-12-27T20:46:26.812Z,8.77
2018-12-27T20:48:55.293Z,7.47
2018-12-27T20:51:23.945Z,10.63
2018-12-27T20:53:52.381Z,8.93
2018-12-27T20:56:20.888Z,10.27
2018-12-27T20:58:49.601Z,10.33
2018-12-27T21:01:18.020Z,7.53
2018-12-27T21:03:46.558Z,8.40
2018-12-27T21:06:15.394Z,9.53
2018-12-27T21:08:43.814Z,9.37
2018-12-27T21:11:12.238Z,9.03
2018-12-27T21:13:40.651Z,9.47
2018-12-27T21:16:09.190Z,10.17
2018-12-27T21:18:37.629Z,8.73
2018-12-27T21:21:06.054Z,11.10
2018-12-27T21:23:34.301Z,9.80
2018-12-27T21:26:02.712Z,8.43
2018-12-27T21:28:31.182Z,11.23
2018-12-27T21:30:59.604Z,9.40
2018-12-27T21:33:28.040Z,9.73
2018-12-27T21:35:56.467Z,14.17
2018-12-27T21:38:24.906Z,10.23
2018-12-27T21:40:59.633Z,8.70
2018-12-27T21:43:28.129Z,12.37
2018-12-27T21:45:56.676Z,10.82
2018-12-27T21:48:25.119Z,11.07
2018-12-27T21:50:53.641Z,10.77
2018-12-27T21:53:22.062Z,9.43
2018-12-27T21:55:50.563Z,10.53
2018-12-27T21:58:18.992Z,11.37
2018-12-27T22:00:47.414Z,9.70
2018-12-27T22:03:15.952Z,11.97
2018-12-27T22:05:44.401Z,9.50
2018-12-27T22:08:12.824Z,11.90
2018-12-27T22:10:41.265Z,11.00
2018-12-27T22:13:09.864Z,10.90
2018-12-27T22:15:38.549Z,10.07
2018-12-27T22:18:06.981Z,10.83
2018-12-27T22:20:35.535Z,9.90
2018-12-27T22:23:04.473Z,11.83
2018-12-27T22:25:32.990Z,9.60
2018-12-27T22:28:01.502Z,13.17
2018-12-27T22:30:29.946Z,13.73
2018-12-27T22:32:58.386Z,11.63
2018-12-27T22:35:26.800Z,10.43
2018-12-27T22:37:55.225Z,11.23
2018-12-27T22:40:23.651Z,9.00
2018-12-27T22:42:52.159Z,10.00
2018-12-27T22:45:20.598Z,9.50
2018-12-27T22:47:49.045Z,9.60
2018-12-27T22:50:17.454Z,12.57
2018-12-27T22:52:46.015Z,9.23
2018-12-27T22:55:14.440Z,9.83
2018-12-27T22:57:42.889Z,10.10
2018-12-27T23:00:22.002Z,8.80
2018-12-27T23:02:50.409Z,8.03
2018-12-27T23:05:18.837Z,8.60
2018-12-27T23:07:47.296Z,9.67
2018-12-27T23:10:15.690Z,11.53
2018-12-27T23:12:44.151Z,14.67
2018-12-27T23:15:12.574Z,10.47
2018-12-27T23:17:40.989Z,10.67
2018-12-27T23:20:09.467Z,10.23
2018-12-27T23:22:37.879Z,11.47
2018-12-27T23:25:06.314Z,9.80
2018-12-27T23:27:34.899Z,10.07
2018-12-27T23:30:04.005Z,10.73
2018-12-27T23:32:32.493Z,9.23
2018-12-27T23:35:00.958Z,10.90
2018-12-27T23:37:29.371Z,10.37
2018-12-27T23:39:57.820Z,11.50
2018-12-27T23:42:26.383Z,12.20
2018-12-27T23:44:54.888Z,12.30
2018-12-27T23:47:23.324Z,11.10
2018-12-27T23:49:51.756Z,10.83
2018-12-27T23:52:20.181Z,12.23
2018-12-27T23:54:48.627Z,12.87
2018-12-27T23:57:17.042Z,12.53
2018-12-27T23:59:45.549Z,14.37
